Philadelphia International Airport
KPHL : now visible

Airfield :











YOU CAN JOIN US ON...

 
LOGIN :

Register | Disclaimer

   EN    FR    IT 

 









Legend :    VFR   Marginal VFR   IFR   Intensive IFR   Very Intensive IFR
Visi :
Ceiling :
>= 8 km
>= 3000ft
5 to 8 km
1000 to 3000 ft
1500m to 5 km
500 to 1000 ft
800 to 1500m
200 to 500 ft
< 800m
< 200 ft
Symbols :   Thunderstorms  Fog  Heavy snow  Heavy precipitations  Wind > 20 kt






- Airport Elevation : 36 ft
- IATA code : PHL


KPHL - Philadelphia International

CURRENT METAR :
  • 080654Z 23005KT 10SM BKN090 OVC130 05/02 A3011 RMK AO2 RAE0555 SLP194 P0000 T00500022

EXPIRED METARs :
  • 080610Z 20006KT 10SM SCT095 OVC110 05/02 A3011 RMK AO2 RAE0555 P0000 T00500017
  • 080554Z 19005KT 7SM -RA BKN090 OVC110 05/02 A3011 RMK AO2 SLP195 P0001 60001 T00500022 10056 20050 58025
  • 080531Z 19004KT 8SM -RA BKN075 OVC100 05/02 A3012 RMK AO2 P0001 T00500022
  • 080514Z 20004KT 6SM -RA OVC075 05/02 A3013 RMK AO2 P0000 T00500022
  • 080454Z 00000KT 7SM -RA OVC060 05/02 A3015 RMK AO2 RAB24 SLP208 P0000 T00500022 400781028
  • 080435Z 13004KT 8SM -RA OVC060 05/02 A3015 RMK AO2 RAB24 P0000 T00500022
  • 080424Z 00000KT 6SM -RA OVC060 05/02 A3017 RMK AO2 RAB24 P0000 T00500017

TAF KPHL
Valid from the 08 at 06:00 until the 09 at 12:00 UTC


080533Z 0806/0912 25004KT P6SM -RA OVC050
FM080800 28005KT P6SM OVC050
FM081300 32008KT P6SM SCT250
FM081500 32012G17KT P6SM FEW250
FM082200 30008KT P6SM FEW250
KZDC FIR / North America



MET'MAP, your aeronautical weather chart ! - Copyright ORBIFLY December 2007 - Disclaimer

ORBIFLY MET'MAP TEAM :

Programming & Development : Alexandra Zaïnal
Original concept : Baudouin d'Aumeries
Technical & hardware support : Manuel Goepfert
Assistance : Marc-Olivier Méhu




SOURCES & CREDITS :

   NOAA       Earth
Advisory